Time;durP1;ratioP1;P1;durP2;ratioP2;P2;SDS_P1;SDS_P2;PMS_P1;PMS_P2;Temp;Humidity;BMP_temperature;BMP_pressure;BME280_temperature;BME280_humidity;BME280_pressure;Samples;Min_cycle;Max_cycle;Signal;HPM_P1;HPM_P2
2023/03/26 00:01:14;;;;;;;;;2.33;1.00;;;;;13.18;51.48;100270.47;5072902;28;45369;-70
2023/03/26 00:03:40;;;;;;;;;0.67;0.67;;;;;13.25;52.32;100281.28;5073034;27;45370;-68
2023/03/26 00:06:09;;;;;;;;;5.00;2.00;;;;;13.21;52.03;100284.81;5072028;27;45741;-69
2023/03/26 00:08:35;;;;;;;;;1.00;1.00;;;;;13.11;51.60;100265.97;5066051;27;45446;-70
2023/03/26 00:11:02;;;;;;;;;3.00;3.00;;;;;13.07;52.75;100275.78;5071852;28;47701;-69
2023/03/26 00:13:29;;;;;;;;;2.33;2.00;;;;;12.98;52.90;100273.88;5073188;27;45364;-69
2023/03/26 00:15:55;;;;;;;;;1.00;1.00;;;;;12.93;53.23;100272.06;5072749;27;45594;-69
2023/03/26 00:18:23;;;;;;;;;6.00;2.33;;;;;12.78;54.25;100240.66;5072801;27;45571;-69
2023/03/26 00:20:52;;;;;;;;;1.67;1.67;;;;;12.82;54.33;100246.06;5072894;28;45684;-71
2023/03/26 00:23:17;;;;;;;;;2.33;2.00;;;;;12.87;54.36;100252.38;5066553;27;45687;-67
2023/03/26 00:25:44;;;;;;;;;8.00;3.50;;;;;12.90;55.26;100238.06;5072827;27;45354;-69
2023/03/26 00:28:10;;;;;;;;;1.00;1.00;;;;;12.89;54.20;100242.53;5073285;27;45452;-68
2023/03/26 00:30:35;;;;;;;;;12.00;9.00;;;;;12.85;54.96;100238.06;5070996;28;47026;-68
2023/03/26 00:33:01;;;;;;;;;3.50;3.25;;;;;12.87;54.79;100235.38;5072898;27;45505;-69
2023/03/26 00:35:28;;;;;;;;;4.33;1.33;;;;;12.90;55.15;100221.97;5072674;27;45363;-68
2023/03/26 00:37:54;;;;;;;;;4.67;2.00;;;;;12.87;55.13;100208.56;5071374;27;45314;-69
2023/03/26 00:40:20;;;;;;;;;1.00;0.00;;;;;12.96;55.77;100221.16;5069287;28;45920;-70
2023/03/26 00:42:46;;;;;;;;;3.00;3.00;;;;;12.89;56.58;100206.81;5071642;28;45381;-68
2023/03/26 00:45:11;;;;;;;;;1.00;1.00;;;;;12.93;56.42;100213.97;5068557;28;45365;-70
2023/03/26 00:47:38;;;;;;;;;1.33;1.33;;;;;12.93;57.35;100205.91;5062477;27;45414;-71
2023/03/26 00:50:05;;;;;;;;;4.33;2.00;;;;;12.81;57.33;100184.38;5070299;28;45800;-70
2023/03/26 00:52:30;;;;;;;;;2.67;1.67;;;;;12.79;58.38;100178.13;5063995;28;45426;-72
2023/03/26 00:54:56;;;;;;;;;1.33;1.33;;;;;12.81;58.92;100163.84;5072326;28;45438;-69
2023/03/26 00:57:21;;;;;;;;;5.50;4.50;;;;;12.83;59.48;100167.41;5071050;27;45390;-69
2023/03/26 00:59:48;;;;;;;;;1.00;1.00;;;;;12.67;58.61;100142.28;5071965;27;45471;-68
2023/03/26 01:02:17;;;;;;;;;4.67;2.00;;;;;12.73;58.92;100150.34;5072816;28;45508;-70
2023/03/26 01:04:46;;;;;;;;;2.33;2.00;;;;;12.75;59.61;100146.81;5072458;27;45467;-69
2023/03/26 01:07:20;;;;;;;;;11.75;6.25;;;;;12.64;60.19;100112.78;5072536;27;45546;-68
2023/03/26 01:09:49;;;;;;;;;1.00;1.00;;;;;12.65;61.26;100125.28;5059137;27;46515;-68
2023/03/26 01:12:21;;;;;;;;;12.50;10.25;;;;;12.65;60.71;100125.28;5065483;27;45485;-68
2023/03/26 01:14:47;;;;;;;;;20.25;15.75;;;;;12.65;61.48;100103.84;5071016;27;45357;-68
2023/03/26 01:17:14;;;;;;;;;3.33;3.33;;;;;12.53;61.67;100083.22;5067204;27;45761;-68
2023/03/26 01:20:11;;;;;;;;;2.33;1.00;;;;;12.60;61.19;100096.66;5078107;27;46306;-69
2023/03/26 01:22:41;;;;;;;;;2.67;1.00;;;;;12.46;62.64;100061.75;5087459;28;45256;-69
2023/03/26 01:25:08;;;;;;;;;1.67;1.67;;;;;12.55;63.00;100067.16;5082417;27;45122;-69
2023/03/26 01:27:50;;;;;;;;;2.00;1.00;;;;;12.59;63.18;100082.38;5089436;27;45251;-68
2023/03/26 01:30:40;;;;;;;;;2.67;0.33;;;;;12.48;63.46;100057.28;5088993;27;46483;-68
2023/03/26 01:33:05;;;;;;;;;2.33;1.00;;;;;12.49;63.39;100070.69;5087952;27;45175;-68
2023/03/26 01:35:37;;;;;;;;;4.33;3.00;;;;;12.27;64.61;100033.91;5085168;27;45427;-68
2023/03/26 01:38:17;;;;;;;;;2.00;1.00;;;;;12.42;64.44;100054.56;5063985;28;45516;-69
2023/03/26 01:41:03;;;;;;;;;4.00;1.00;;;;;12.36;65.33;100036.66;5080198;27;45508;-68
2023/03/26 01:43:57;;;;;;;;;3.33;2.00;;;;;12.39;65.22;100035.78;5086981;28;45444;-69
2023/03/26 01:46:24;;;;;;;;;1.00;1.00;;;;;12.30;64.85;100012.50;5082524;27;45374;-67
2023/03/26 01:48:50;;;;;;;;;1.67;1.33;;;;;12.31;65.91;100000.91;5088606;27;45170;-68
2023/03/26 01:51:28;;;;;;;;;3.00;1.00;;;;;12.15;65.66;99962.41;5088969;28;45909;-68
2023/03/26 01:53:54;;;;;;;;;4.00;1.00;;;;;12.15;66.30;99970.44;5091346;27;45097;-69
2023/03/26 01:56:43;;;;;;;;;3.00;1.33;;;;;12.11;67.36;99956.13;5082998;28;45298;-69
2023/03/26 01:59:15;;;;;;;;;1.00;1.00;;;;;12.15;66.81;99957.94;5078832;28;45634;-68
2023/03/26 02:01:58;;;;;;;;;2.00;0.67;;;;;12.10;67.58;99940.06;5074582;27;45602;-68
2023/03/26 02:04:29;;;;;;;;;1.00;1.00;;;;;12.08;67.55;99937.38;5064536;28;45686;-68
2023/03/26 02:07:04;;;;;;;;;2.00;2.00;;;;;12.04;68.32;99922.16;5074334;28;45399;-69
2023/03/26 02:09:39;;;;;;;;;1.67;1.00;;;;;11.99;67.81;99923.91;5072847;28;45207;-67
2023/03/26 02:12:05;;;;;;;;;1.00;1.00;;;;;11.88;68.57;99894.34;5079735;27;46718;-68
2023/03/26 02:14:31;;;;;;;;;2.00;1.00;;;;;11.95;68.03;99903.38;5074536;27;45491;-68
2023/03/26 02:16:57;;;;;;;;;0.67;0.00;;;;;11.80;69.12;99890.72;5072708;27;45633;-68
2023/03/26 02:19:23;;;;;;;;;1.67;1.67;;;;;11.78;68.92;99887.16;5075469;27;45444;-68
2023/03/26 02:21:50;;;;;;;;;2.33;1.00;;;;;11.78;69.52;99877.34;5088998;27;46244;-68
2023/03/26 02:24:17;;;;;;;;;1.75;1.00;;;;;11.69;69.68;99871.91;5088106;27;45330;-68
2023/03/26 02:26:42;;;;;;;;;0.67;0.67;;;;;11.64;69.10;99860.28;5076672;27;45423;-68
2023/03/26 02:29:08;;;;;;;;;4.75;3.00;;;;;11.67;69.96;99820.16;5082101;27;45329;-68
2023/03/26 02:31:34;;;;;;;;;1.25;1.00;;;;;11.52;69.15;99791.53;5066993;28;45843;-69
2023/03/26 02:34:00;;;;;;;;;2.00;1.00;;;;;11.48;69.44;99757.59;5067798;28;45554;-68
2023/03/26 02:36:26;;;;;;;;;2.67;1.00;;;;;11.64;70.09;99793.38;5073565;28;45530;-69
2023/03/26 02:38:53;;;;;;;;;3.00;1.00;;;;;11.62;69.31;99813.88;5074879;27;45250;-69
2023/03/26 02:41:19;;;;;;;;;6.00;1.00;;;;;11.58;69.40;99802.28;5075316;27;45916;-69
2023/03/26 02:43:45;;;;;;;;;2.00;1.00;;;;;11.65;69.64;99789.84;5073596;27;45609;-68
2023/03/26 02:46:10;;;;;;;;;1.00;1.00;;;;;11.83;69.72;99804.19;5066684;28;45373;-68
2023/03/26 02:48:35;;;;;;;;;1.00;1.00;;;;;11.87;69.75;99798.88;5072506;28;45337;-68
2023/03/26 02:51:02;;;;;;;;;5.67;4.67;;;;;11.83;68.72;99785.47;5075275;27;46042;-68
2023/03/26 02:53:30;;;;;;;;;2.00;2.00;;;;;11.83;68.38;99780.13;5072838;28;45521;-68
2023/03/26 02:55:57;;;;;;;;;2.00;2.00;;;;;11.85;69.25;99763.19;5074970;27;45511;-68
2023/03/26 02:58:24;;;;;;;;;1.67;1.67;;;;;11.86;69.11;99756.03;5076052;28;46423;-68
2023/03/26 03:00:53;;;;;;;;;3.00;3.00;;;;;11.79;69.42;99723.91;5074919;28;46288;-68
2023/03/26 03:03:23;;;;;;;;;4.00;2.00;;;;;11.93;68.79;99744.53;5072459;27;45715;-68
2023/03/26 03:05:52;;;;;;;;;3.00;3.00;;;;;11.80;67.98;99704.28;5075849;28;45292;-70
2023/03/26 03:08:23;;;;;;;;;2.33;2.00;;;;;11.91;68.60;99730.19;5062093;28;45275;-68
2023/03/26 03:11:00;;;;;;;;;1.00;1.00;;;;;11.86;68.07;99706.06;5077125;27;46124;-69
2023/03/26 03:13:26;;;;;;;;;4.00;3.50;;;;;11.93;68.52;99707.94;5076056;28;45623;-68
2023/03/26 03:15:52;;;;;;;;;3.00;3.00;;;;;11.90;68.29;99696.31;5068137;27;45501;-68
2023/03/26 03:18:17;;;;;;;;;4.00;2.67;;;;;11.88;67.85;99706.09;5067206;27;45371;-69
2023/03/26 03:20:43;;;;;;;;;5.00;2.00;;;;;11.90;68.54;99697.19;5065344;28;46228;-69
2023/03/26 03:23:09;;;;;;;;;1.00;1.00;;;;;11.89;67.99;99708.78;5071156;28;45521;-69
2023/03/26 03:25:34;;;;;;;;;1.00;1.00;;;;;11.92;67.49;99691.88;5069970;28;45241;-69
2023/03/26 03:27:59;;;;;;;;;3.00;2.00;;;;;11.91;67.33;99716.81;5067969;27;45378;-68
2023/03/26 03:30:25;;;;;;;;;0.67;0.67;;;;;11.87;66.83;99685.59;5076938;28;45851;-69
2023/03/26 03:32:50;;;;;;;;;0.00;0.00;;;;;11.81;66.82;99691.78;5072820;27;45574;-70
2023/03/26 03:35:15;;;;;;;;;0.00;0.00;;;;;11.86;66.87;99710.56;5072174;28;50177;-68
2023/03/26 03:37:41;;;;;;;;;0.00;0.00;;;;;11.81;67.03;99694.47;5073831;27;45384;-68
2023/03/26 03:40:09;;;;;;;;;2.00;0.00;;;;;11.77;66.44;99685.53;5067940;27;45602;-68
2023/03/26 03:42:35;;;;;;;;;2.00;0.33;;;;;11.83;64.88;99697.16;5073604;27;45491;-68
2023/03/26 03:45:00;;;;;;;;;3.33;0.00;;;;;11.68;65.15;99672.13;5081491;28;45505;-68
2023/03/26 03:47:26;;;;;;;;;0.00;0.00;;;;;11.74;64.78;99676.59;5092428;27;45662;-69
2023/03/26 03:49:52;;;;;;;;;1.67;1.00;;;;;11.78;64.81;99694.47;5064182;27;45315;-69
2023/03/26 03:52:18;;;;;;;;;0.00;0.00;;;;;11.73;65.18;99697.13;5067251;27;45654;-69
2023/03/26 03:54:43;;;;;;;;;3.33;1.00;;;;;11.79;65.43;99704.28;5067338;28;45476;-68
2023/03/26 03:57:08;;;;;;;;;1.00;0.00;;;;;11.80;65.21;99704.28;5074019;27;44756;-68
2023/03/26 03:59:34;;;;;;;;;3.00;0.00;;;;;11.72;64.25;99675.72;5083323;27;45244;-68
2023/03/26 04:01:59;;;;;;;;;0.00;0.00;;;;;11.79;64.17;99685.53;5075923;27;45737;-67
2023/03/26 04:04:25;;;;;;;;;0.00;0.00;;;;;11.76;64.99;99691.78;5078693;28;45462;-68
2023/03/26 04:06:51;;;;;;;;;0.00;0.00;;;;;11.72;64.62;99678.38;5076222;28;45646;-69
2023/03/26 04:09:16;;;;;;;;;0.00;0.00;;;;;11.76;64.23;99690.88;5074543;27;45390;-68
2023/03/26 04:11:41;;;;;;;;;1.00;0.00;;;;;11.61;63.76;99671.22;5086006;27;45111;-68
2023/03/26 04:14:07;;;;;;;;;0.33;0.00;;;;;11.68;63.24;99690.88;5071035;28;45419;-68
2023/03/26 04:16:32;;;;;;;;;1.00;0.00;;;;;11.64;64.62;99685.47;5072536;27;45476;-67
2023/03/26 04:19:01;;;;;;;;;0.00;0.00;;;;;11.58;63.59;99694.34;5069341;28;45984;-69
2023/03/26 04:21:29;;;;;;;;;1.00;0.00;;;;;11.60;63.43;99714.91;5066009;28;45533;-69
2023/03/26 04:23:55;;;;;;;;;0.00;0.00;;;;;11.59;63.90;99707.75;5068668;28;45551;-68
2023/03/26 04:26:20;;;;;;;;;1.00;0.00;;;;;11.64;63.47;99701.53;5063091;28;45648;-68
2023/03/26 04:29:10;;;;;;;;;0.00;0.00;;;;;11.66;63.39;99706.00;5069126;28;45489;-68
2023/03/26 04:31:37;;;;;;;;;2.00;0.00;;;;;11.69;62.79;99707.81;5072257;27;45554;-68
2023/03/26 04:34:07;;;;;;;;;0.00;0.00;;;;;11.65;62.39;99709.56;5068605;28;46269;-67
2023/03/26 04:36:34;;;;;;;;;0.00;0.00;;;;;11.69;62.42;99715.84;5072298;28;45452;-68
2023/03/26 04:39:03;;;;;;;;;1.00;0.00;;;;;11.71;62.29;99714.06;5072806;27;46235;-68
2023/03/26 04:41:29;;;;;;;;;0.00;0.00;;;;;11.68;61.68;99716.69;5063323;28;45486;-69
2023/03/26 04:43:55;;;;;;;;;0.00;0.00;;;;;11.74;61.11;99731.00;5063282;28;45422;-69
2023/03/26 04:46:22;;;;;;;;;0.00;0.00;;;;;11.70;61.15;99733.69;5071939;28;45495;-69
2023/03/26 04:48:51;;;;;;;;;0.00;0.00;;;;;11.68;60.58;99728.31;5088300;27;46924;-68
2023/03/26 04:51:20;;;;;;;;;0.00;0.00;;;;;11.65;61.51;99732.72;5066316;27;45622;-68
2023/03/26 04:53:56;;;;;;;;;0.00;0.00;;;;;11.67;60.92;99741.69;5073102;27;45672;-68
2023/03/26 04:56:42;;;;;;;;;0.00;0.00;;;;;11.65;60.59;99738.09;5064840;27;45599;-68
2023/03/26 04:59:16;;;;;;;;;0.00;0.00;;;;;11.56;60.29;99737.16;5072196;27;45473;-67
2023/03/26 05:01:44;;;;;;;;;1.00;0.00;;;;;11.59;60.04;99737.16;5070383;28;45508;-68
2023/03/26 05:04:12;;;;;;;;;0.00;0.00;;;;;11.57;60.24;99738.06;5084307;27;45476;-68
2023/03/26 05:06:40;;;;;;;;;0.00;0.00;;;;;11.54;60.78;99743.38;5081004;28;45520;-68
2023/03/26 05:09:07;;;;;;;;;0.00;0.00;;;;;11.58;60.37;99747.84;5074895;28;46337;-70
2023/03/26 05:11:33;;;;;;;;;1.00;0.00;;;;;11.51;60.93;99749.59;5068641;28;45425;-69
2023/03/26 05:13:58;;;;;;;;;0.00;0.00;;;;;11.57;60.21;99749.66;5077211;28;45757;-68
2023/03/26 05:16:24;;;;;;;;;1.00;0.00;;;;;11.48;61.32;99730.84;5074253;27;45623;-67
2023/03/26 05:18:50;;;;;;;;;0.00;0.00;;;;;11.47;61.14;99734.44;5070844;27;45381;-69
2023/03/26 05:21:15;;;;;;;;;0.00;0.00;;;;;11.55;60.56;99759.44;5077822;27;45395;-68
2023/03/26 05:23:41;;;;;;;;;1.00;0.00;;;;;11.52;60.71;99751.41;5076855;28;45570;-68
2023/03/26 05:26:08;;;;;;;;;0.00;0.00;;;;;11.52;61.30;99762.09;5079855;27;45320;-67
2023/03/26 05:28:34;;;;;;;;;0.67;0.00;;;;;11.47;61.37;99763.84;5065134;27;46877;-68
2023/03/26 05:31:00;;;;;;;;;0.00;0.00;;;;;11.46;61.40;99750.47;5078451;27;45521;-68
2023/03/26 05:33:25;;;;;;;;;1.00;1.00;;;;;11.28;61.10;99738.75;5071899;27;45491;-68
2023/03/26 05:36:08;;;;;;;;;2.00;0.00;;;;;11.41;61.13;99777.19;5077492;28;45564;-68
2023/03/26 05:38:34;;;;;;;;;0.00;0.00;;;;;11.22;60.62;99744.97;5082748;28;47539;-68
2023/03/26 05:41:06;;;;;;;;;0.00;0.00;;;;;11.33;60.76;99770.88;5083802;28;45381;-68
2023/03/26 05:43:32;;;;;;;;;0.67;0.00;;;;;11.33;61.48;99774.44;5075006;27;45485;-68
2023/03/26 05:45:57;;;;;;;;;0.00;0.00;;;;;11.32;61.45;99779.78;5076324;27;45534;-68
2023/03/26 05:48:23;;;;;;;;;0.00;0.00;;;;;11.27;61.00;99765.47;5072770;27;46026;-67
2023/03/26 05:50:51;;;;;;;;;1.00;0.00;;;;;11.35;61.33;99770.03;5091233;28;45278;-68
2023/03/26 05:53:17;;;;;;;;;1.00;0.00;;;;;11.24;61.51;99737.84;5085013;28;45243;-68
2023/03/26 05:55:49;;;;;;;;;1.00;0.00;;;;;11.00;61.41;99700.22;5090557;27;45262;-68
2023/03/26 05:58:15;;;;;;;;;0.33;0.00;;;;;11.29;61.15;99747.69;5074559;28;45459;-68
2023/03/26 06:00:41;;;;;;;;;0.00;0.00;;;;;11.30;61.24;99769.09;5075265;27;45483;-68
2023/03/26 06:03:11;;;;;;;;;1.00;0.00;;;;;11.28;60.89;99753.91;5075654;28;45467;-67
2023/03/26 06:05:38;;;;;;;;;0.00;0.00;;;;;11.33;61.32;99749.47;5075653;27;45480;-69
2023/03/26 06:08:04;;;;;;;;;0.00;0.00;;;;;11.34;59.83;99756.63;5064372;27;46975;-69
2023/03/26 06:10:30;;;;;;;;;1.00;1.00;;;;;11.31;59.57;99754.81;5069491;27;45505;-67
2023/03/26 06:12:55;;;;;;;;;3.00;0.00;;;;;11.29;59.65;99753.03;5073174;28;45463;-68
2023/03/26 06:15:21;;;;;;;;;0.00;0.00;;;;;11.23;59.52;99754.75;5075781;27;45678;-68
2023/03/26 06:17:46;;;;;;;;;0.00;0.00;;;;;11.12;59.05;99745.78;5068791;28;46044;-69
2023/03/26 06:20:13;;;;;;;;;1.00;0.00;;;;;11.16;59.67;99757.38;5070388;28;45455;-68
2023/03/26 06:22:38;;;;;;;;;1.00;0.67;;;;;11.22;59.33;99768.13;5074813;28;45495;-69
2023/03/26 06:25:04;;;;;;;;;1.00;0.00;;;;;11.25;59.84;99773.47;5078378;27;45464;-66
2023/03/26 06:27:29;;;;;;;;;1.00;1.00;;;;;11.25;59.61;99782.41;5073954;28;46536;-68
2023/03/26 06:29:55;;;;;;;;;1.67;1.00;;;;;11.23;59.88;99777.94;5088665;28;45044;-69
2023/03/26 06:32:20;;;;;;;;;3.00;1.00;;;;;11.30;59.80;99782.47;5081186;27;47943;-69
2023/03/26 06:34:45;;;;;;;;;0.00;0.00;;;;;11.30;59.75;99779.78;5083983;27;45546;-67
2023/03/26 06:37:11;;;;;;;;;0.00;0.00;;;;;11.31;59.62;99788.69;5084868;28;46005;-68
2023/03/26 06:39:36;;;;;;;;;2.00;0.00;;;;;11.32;59.68;99785.13;5075410;27;45447;-67
2023/03/26 06:42:01;;;;;;;;;1.00;1.00;;;;;11.17;58.72;99746.72;5076633;28;45467;-67
2023/03/26 06:44:27;;;;;;;;;1.33;0.00;;;;;11.36;59.24;99774.47;5083219;28;45111;-69
2023/03/26 06:46:52;;;;;;;;;2.00;0.67;;;;;11.41;59.90;99782.53;5091406;28;45111;-68
2023/03/26 06:49:17;;;;;;;;;2.67;0.67;;;;;11.43;59.16;99783.44;5092191;27;45380;-69
2023/03/26 06:51:45;;;;;;;;;4.00;0.00;;;;;11.51;59.06;99786.16;5086407;27;45443;-69
2023/03/26 06:54:10;;;;;;;;;0.00;0.00;;;;;11.56;58.46;99787.97;5070585;27;45483;-68
2023/03/26 06:56:36;;;;;;;;;0.00;0.00;;;;;11.57;58.98;99786.22;5075964;28;45572;-69
2023/03/26 06:59:01;;;;;;;;;2.00;0.00;;;;;11.64;58.20;99795.19;5078009;28;45409;-68
2023/03/26 07:01:26;;;;;;;;;0.00;0.00;;;;;11.66;58.80;99804.97;5068715;27;46474;-68
2023/03/26 07:03:52;;;;;;;;;3.00;1.00;;;;;11.62;57.78;99793.38;5063397;28;45796;-68
2023/03/26 07:06:17;;;;;;;;;1.00;1.00;;;;;11.65;58.38;99796.94;5080961;28;45781;-70
2023/03/26 07:08:42;;;;;;;;;3.00;1.00;;;;;11.72;57.64;99793.44;5063722;28;45519;-67
2023/03/26 07:11:08;;;;;;;;;0.33;0.33;;;;;11.68;57.75;99796.97;5067649;27;46658;-67
2023/03/26 07:13:33;;;;;;;;;0.00;0.00;;;;;11.78;57.80;99807.75;5069865;27;45721;-67
2023/03/26 07:15:58;;;;;;;;;1.00;1.00;;;;;11.79;57.03;99814.00;5063096;27;50219;-67
2023/03/26 07:18:24;;;;;;;;;0.00;0.00;;;;;11.79;58.12;99816.66;5077180;27;45095;-68
2023/03/26 07:20:49;;;;;;;;;2.67;2.00;;;;;11.80;57.17;99815.78;5082360;27;45254;-68
2023/03/26 07:23:18;;;;;;;;;1.00;1.00;;;;;11.73;57.58;99825.56;5088493;27;45258;-67
2023/03/26 07:25:46;;;;;;;;;1.00;1.00;;;;;11.78;58.20;99829.16;5084061;27;45787;-69
2023/03/26 07:28:23;;;;;;;;;0.33;0.33;;;;;11.80;57.44;99819.34;5081827;27;45522;-69
2023/03/26 07:31:16;;;;;;;;;2.00;0.33;;;;;11.80;57.48;99821.16;5063285;28;45592;-69
2023/03/26 07:34:05;;;;;;;;;0.00;0.00;;;;;11.77;57.06;99834.50;5067569;28;45935;-69
2023/03/26 07:36:48;;;;;;;;;7.33;0.33;;;;;11.79;58.04;99832.72;5064746;28;46307;-68
2023/03/26 07:39:36;;;;;;;;;1.00;1.00;;;;;11.76;57.97;99816.66;5065500;28;45286;-68
2023/03/26 07:42:02;;;;;;;;;2.00;0.00;;;;;11.88;57.77;99834.56;5067110;28;46256;-68
2023/03/26 07:44:59;;;;;;;;;2.33;1.00;;;;;11.86;57.71;99826.53;5065533;28;45370;-67
2023/03/26 07:47:31;;;;;;;;;1.33;0.00;;;;;11.95;58.03;99839.13;5068061;27;46716;-69
2023/03/26 07:49:57;;;;;;;;;3.67;1.00;;;;;11.91;57.06;99840.88;5065869;28;45432;-69
2023/03/26 07:52:23;;;;;;;;;1.00;1.00;;;;;11.90;57.17;99831.03;5065248;27;45511;-68
2023/03/26 07:54:49;;;;;;;;;1.67;0.00;;;;;11.97;57.38;99845.38;5058072;28;46882;-70
2023/03/26 07:57:27;;;;;;;;;4.00;1.00;;;;;12.03;57.58;99840.06;5064707;28;45706;-69
2023/03/26 08:00:11;;;;;;;;;5.00;1.00;;;;;12.10;57.91;99849.91;5070402;28;45397;-68
2023/03/26 08:03:06;;;;;;;;;6.00;0.33;;;;;12.21;57.45;99852.66;5068520;28;46329;-68
2023/03/26 08:05:46;;;;;;;;;1.00;1.00;;;;;12.25;56.70;99853.56;5036835;27;45538;-68
2023/03/26 08:08:27;;;;;;;;;2.67;0.00;;;;;12.20;56.67;99832.09;5067438;28;46434;-70
2023/03/26 08:11:15;;;;;;;;;2.67;2.00;;;;;12.40;57.60;99864.34;5060130;28;45528;-70
2023/03/26 08:13:55;;;;;;;;;2.33;1.00;;;;;12.43;56.85;99856.31;5073430;27;45385;-70
2023/03/26 08:16:47;;;;;;;;;1.00;1.00;;;;;12.46;56.72;99861.69;5069655;27;45584;-69
2023/03/26 08:19:32;;;;;;;;;5.33;2.33;;;;;12.41;56.38;99852.75;5070125;28;47087;-68
2023/03/26 08:22:05;;;;;;;;;5.00;1.00;;;;;12.51;55.83;99872.44;5069851;28;45659;-69
2023/03/26 08:24:52;;;;;;;;;0.33;0.33;;;;;12.47;56.15;99859.91;5067976;28;45573;-69
2023/03/26 08:27:42;;;;;;;;;0.67;0.67;;;;;12.54;56.70;99867.09;5066935;28;45548;-69
2023/03/26 08:30:25;;;;;;;;;1.67;1.00;;;;;12.53;56.13;99860.81;5060351;27;46386;-68
2023/03/26 08:32:57;;;;;;;;;1.67;1.00;;;;;12.52;55.63;99856.38;5067965;28;45579;-69
2023/03/26 08:35:26;;;;;;;;;4.00;1.00;;;;;12.44;56.30;99859.88;5073034;27;45435;-68
2023/03/26 08:37:52;;;;;;;;;2.67;1.00;;;;;12.38;56.60;99857.19;5067229;28;46738;-69
2023/03/26 08:40:36;;;;;;;;;3.00;1.00;;;;;12.47;56.96;99868.84;5070171;28;47046;-69
2023/03/26 08:43:23;;;;;;;;;0.00;0.00;;;;;12.52;57.12;99875.13;5064163;28;45479;-69
2023/03/26 08:46:11;;;;;;;;;2.00;1.00;;;;;12.57;56.78;99864.41;5072116;28;45419;-69
2023/03/26 08:49:01;;;;;;;;;3.00;1.00;;;;;12.61;56.47;99863.53;5070737;28;45410;-69
2023/03/26 08:51:46;;;;;;;;;0.67;0.67;;;;;12.62;55.77;99867.09;5066051;28;46950;-70
2023/03/26 08:54:33;;;;;;;;;1.00;1.00;;;;;12.64;55.60;99868.91;5071831;28;45959;-68
2023/03/26 08:57:24;;;;;;;;;2.00;0.00;;;;;12.67;56.60;99876.06;5065888;28;45581;-69
2023/03/26 09:00:12;;;;;;;;;2.33;1.00;;;;;12.64;56.17;99868.03;5070012;27;46479;-70
2023/03/26 09:03:10;;;;;;;;;2.00;0.33;;;;;12.75;55.38;99871.63;5065146;28;45905;-70
2023/03/26 09:05:53;;;;;;;;;3.00;1.00;;;;;12.75;55.21;99876.09;5072846;28;45500;-69
2023/03/26 09:08:40;;;;;;;;;0.33;0.00;;;;;12.78;55.17;99878.78;5076533;28;45631;-69
2023/03/26 09:11:53;;;;;;;;;2.00;2.00;;;;;12.81;54.86;99900.25;5067966;28;45393;-70
2023/03/26 09:14:42;;;;;;;;;1.00;1.00;;;;;12.77;54.70;99893.06;5036272;28;45345;-69
2023/03/26 09:17:29;;;;;;;;;3.67;0.33;;;;;12.74;54.32;99899.34;5066499;27;45522;-70
2023/03/26 09:20:07;;;;;;;;;0.00;0.00;;;;;12.71;54.66;99900.19;5068127;28;45606;-69
2023/03/26 09:23:00;;;;;;;;;3.67;0.33;;;;;12.70;54.57;99898.44;5072535;28;45319;-70
2023/03/26 09:25:50;;;;;;;;;0.33;0.33;;;;;12.76;54.15;99904.69;5074641;28;46620;-69
2023/03/26 09:28:35;;;;;;;;;3.00;1.67;;;;;12.80;54.17;99914.53;5069822;28;45594;-70
2023/03/26 09:31:30;;;;;;;;;0.00;0.00;;;;;12.66;53.81;99875.16;5077466;27;45509;-72
2023/03/26 09:34:18;;;;;;;;;2.33;0.00;;;;;12.76;53.20;99905.59;5073357;28;45467;-69
2023/03/26 09:37:04;;;;;;;;;2.00;1.00;;;;;12.79;52.95;99908.28;5069233;28;46283;-69
2023/03/26 09:39:41;;;;;;;;;1.00;0.00;;;;;12.81;52.71;99913.66;5067854;28;45414;-69
2023/03/26 09:42:21;;;;;;;;;2.00;1.00;;;;;12.83;53.28;99917.22;5075612;28;45472;-68
2023/03/26 09:45:12;;;;;;;;;0.67;0.67;;;;;12.87;53.13;99919.03;5072166;27;45367;-70
2023/03/26 09:47:56;;;;;;;;;2.00;1.00;;;;;12.85;52.76;99915.44;5075334;27;46187;-68
2023/03/26 09:51:00;;;;;;;;;1.50;0.50;;;;;12.88;52.63;99921.69;5079073;28;45510;-69
2023/03/26 09:53:37;;;;;;;;;3.67;1.00;;;;;12.93;52.57;99921.72;5050859;28;45283;-69
2023/03/26 09:56:31;;;;;;;;;2.00;0.00;;;;;12.90;52.43;99919.94;5088862;28;45319;-70
2023/03/26 09:58:59;;;;;;;;;3.00;2.00;;;;;12.86;51.69;99934.22;5069642;28;46032;-69
2023/03/26 10:01:32;;;;;;;;;0.00;0.00;;;;;12.81;52.27;99927.06;5074702;28;45536;-70
2023/03/26 10:04:09;;;;;;;;;0.00;0.00;;;;;12.83;51.79;99934.19;5063706;27;45825;-69
2023/03/26 10:06:45;;;;;;;;;2.00;1.00;;;;;12.85;51.75;99934.19;5076952;28;45185;-69
2023/03/26 10:09:28;;;;;;;;;0.00;0.00;;;;;12.85;51.78;99936.88;5090337;28;45722;-68
2023/03/26 10:12:05;;;;;;;;;0.00;0.00;;;;;12.83;51.76;99938.66;5084915;28;45095;-68
2023/03/26 10:14:44;;;;;;;;;0.67;0.67;;;;;12.78;51.31;99945.81;5085408;28;45571;-68
2023/03/26 10:17:32;;;;;;;;;0.00;0.00;;;;;12.76;51.50;99948.47;5080178;27;45358;-70
2023/03/26 10:20:25;;;;;;;;;1.67;0.00;;;;;12.80;52.55;99946.69;5064116;28;46743;-69
2023/03/26 10:23:28;;;;;;;;;0.00;0.00;;;;;12.85;52.18;99950.28;5078410;27;45581;-69
2023/03/26 10:26:24;;;;;;;;;0.67;0.67;;;;;12.88;51.22;99961.03;5081826;27;45389;-69
2023/03/26 10:29:24;;;;;;;;;1.00;1.00;;;;;12.93;51.32;99953.00;5084081;27;44990;-68
2023/03/26 10:32:15;;;;;;;;;1.00;1.00;;;;;12.94;50.67;99957.50;5085232;28;45330;-69
2023/03/26 10:35:25;;;;;;;;;2.67;0.00;;;;;12.94;51.00;99961.06;5077813;28;45083;-69
2023/03/26 10:38:15;;;;;;;;;1.00;0.00;;;;;12.99;50.46;99961.97;5080229;28;45236;-69
2023/03/26 10:41:03;;;;;;;;;0.00;0.00;;;;;13.00;50.78;99963.78;5084437;28;45289;-69
2023/03/26 10:43:53;;;;;;;;;1.00;1.00;;;;;13.03;50.31;99969.16;5080469;27;45395;-66
2023/03/26 10:46:35;;;;;;;;;1.33;0.00;;;;;13.02;51.49;99967.34;5083253;27;45282;-72
2023/03/26 10:49:15;;;;;;;;;0.00;0.00;;;;;13.01;51.48;99970.03;5084994;27;45331;-67
2023/03/26 10:51:53;;;;;;;;;1.00;0.67;;;;;13.03;51.26;99976.28;5079693;28;46507;-67
2023/03/26 10:54:35;;;;;;;;;3.00;3.00;;;;;13.08;50.90;99977.19;5089416;27;45986;-69
2023/03/26 10:57:11;;;;;;;;;3.00;3.00;;;;;13.02;51.58;99961.09;5079602;28;45526;-70
2023/03/26 10:59:37;;;;;;;;;4.00;2.00;;;;;13.21;50.77;99972.75;5066521;28;45449;-68
2023/03/26 11:02:19;;;;;;;;;1.00;1.00;;;;;13.28;50.96;99964.75;5067727;28;45437;-68
2023/03/26 11:05:18;;;;;;;;;2.00;0.33;;;;;13.38;50.54;99967.47;5063364;28;46222;-68
2023/03/26 11:08:07;;;;;;;;;0.00;0.00;;;;;13.48;50.54;99966.63;5070944;28;45597;-67
2023/03/26 11:10:47;;;;;;;;;2.00;2.00;;;;;13.60;50.34;99966.63;5069821;27;45664;-69
2023/03/26 11:13:34;;;;;;;;;0.00;0.00;;;;;13.69;50.15;99970.22;5067998;27;45754;-69
2023/03/26 11:16:02;;;;;;;;;1.33;1.00;;;;;13.72;50.11;99971.09;5079257;28;46261;-68
2023/03/26 11:18:49;;;;;;;;;1.00;1.00;;;;;13.80;50.44;99974.69;5091940;28;45027;-70
2023/03/26 11:21:23;;;;;;;;;2.33;0.00;;;;;13.92;50.05;99959.50;5080528;28;45160;-69
2023/03/26 11:23:57;;;;;;;;;0.67;0.67;;;;;14.02;49.36;99963.97;5074453;28;45307;-69
2023/03/26 11:26:57;;;;;;;;;0.00;0.00;;;;;13.94;49.62;99958.63;5090189;28;45638;-69
2023/03/26 11:29:43;;;;;;;;;2.00;1.00;;;;;13.95;49.77;99957.69;5069832;28;45498;-69
2023/03/26 11:32:30;;;;;;;;;5.00;1.00;;;;;14.03;49.63;99960.38;5074198;27;45463;-70
2023/03/26 11:35:08;;;;;;;;;1.67;1.00;;;;;14.08;49.68;99939.78;5076914;27;46756;-69
2023/03/26 11:37:40;;;;;;;;;0.67;0.67;;;;;14.16;49.31;99940.69;5075184;28;45718;-69
2023/03/26 11:40:33;;;;;;;;;2.33;1.00;;;;;14.34;47.59;99939.75;5070950;27;45659;-70
2023/03/26 11:43:02;;;;;;;;;2.00;1.00;;;;;14.40;48.16;99943.31;5063003;27;45581;-69
2023/03/26 11:45:32;;;;;;;;;2.33;1.33;;;;;14.52;47.26;99933.44;5067234;28;45771;-71
2023/03/26 11:48:17;;;;;;;;;3.00;0.00;;;;;14.64;46.22;99937.03;5065065;27;46486;-68
2023/03/26 11:50:47;;;;;;;;;1.00;1.00;;;;;14.73;45.85;99937.91;5061740;28;45432;-68
2023/03/26 11:53:16;;;;;;;;;2.00;0.00;;;;;14.74;45.22;99944.16;5065013;28;46725;-69
2023/03/26 11:56:26;;;;;;;;;0.00;0.00;;;;;14.72;44.61;99948.66;5070712;28;45497;-69
2023/03/26 11:59:04;;;;;;;;;1.00;1.00;;;;;14.61;44.91;99951.34;5058794;27;45998;-69
2023/03/26 12:01:55;;;;;;;;;0.00;0.00;;;;;14.46;45.76;99962.13;5070343;27;45626;-71